Time;durP1;ratioP1;P1;durP2;ratioP2;P2;SDS_P1;SDS_P2;PMS_P1;PMS_P2;Temp;Humidity;BMP_temperature;BMP_pressure;BME280_temperature;BME280_humidity;BME280_pressure;Samples;Min_cycle;Max_cycle;Signal;HPM_P1;HPM_P2
2023/12/08 00:01:14;;;;;;;14.60;4.37;;;;;;;5.81;66.86;96878.47;4907601;29;20240;-74
2023/12/08 00:03:41;;;;;;;12.73;3.90;;;;;;;5.76;66.58;96872.59;4894249;29;20625;-69
2023/12/08 00:06:09;;;;;;;13.97;4.03;;;;;;;5.64;66.23;96881.53;4895548;29;20201;-70
2023/12/08 00:08:37;;;;;;;7.90;2.50;;;;;;;5.58;67.29;96865.44;4894289;29;20199;-69
2023/12/08 00:11:06;;;;;;;16.43;4.57;;;;;;;5.66;66.07;96871.19;4894540;29;20287;-69
2023/12/08 00:13:33;;;;;;;10.97;3.20;;;;;;;5.55;67.26;96860.38;4895278;29;20200;-69
2023/12/08 00:16:01;;;;;;;10.27;3.20;;;;;;;5.62;66.81;96867.03;4893679;29;20281;-72
2023/12/08 00:18:28;;;;;;;12.90;3.60;;;;;;;5.48;65.79;96877.69;4895378;29;20209;-72
2023/12/08 00:20:55;;;;;;;14.80;4.17;;;;;;;5.65;66.95;96884.91;4893655;29;20231;-74
2023/12/08 00:23:22;;;;;;;11.80;3.30;;;;;;;5.66;65.53;96905.44;4895307;29;20755;-73
2023/12/08 00:25:49;;;;;;;7.03;2.23;;;;;;;5.65;66.00;96901.16;4894280;29;20196;-75
2023/12/08 00:28:17;;;;;;;12.07;3.73;;;;;;;5.67;66.43;96907.09;4894684;29;20209;-75
2023/12/08 00:30:44;;;;;;;10.37;3.07;;;;;;;5.40;65.88;96876.25;4894997;29;20193;-75
2023/12/08 00:33:11;;;;;;;13.40;3.80;;;;;;;5.61;65.71;96916.69;4893810;29;20607;-71
2023/12/08 00:35:38;;;;;;;12.20;3.50;;;;;;;5.75;65.88;96927.41;4895467;29;20212;-72
2023/12/08 00:38:05;;;;;;;14.77;4.13;;;;;;;5.66;65.16;96913.16;4893469;29;20219;-71
2023/12/08 00:40:32;;;;;;;11.63;3.43;;;;;;;5.68;64.85;96913.94;4894841;29;20256;-73
2023/12/08 00:43:00;;;;;;;11.67;3.23;;;;;;;5.61;65.48;96906.44;4893622;29;20650;-73
2023/12/08 00:45:27;;;;;;;13.03;3.77;;;;;;;5.50;66.74;96917.00;4894347;29;20212;-73
2023/12/08 00:47:54;;;;;;;5.67;1.97;;;;;;;5.43;66.92;96923.22;4909057;29;20267;-73
2023/12/08 00:50:21;;;;;;;12.53;3.60;;;;;;;5.41;66.83;96913.84;4893551;29;20224;-72
2023/12/08 00:52:48;;;;;;;10.43;3.03;;;;;;;5.42;66.23;96925.81;4892769;29;20235;-75
2023/12/08 00:55:15;;;;;;;11.03;3.27;;;;;;;5.28;66.25;96920.19;4893228;29;20694;-73
2023/12/08 00:57:44;;;;;;;13.93;4.03;;;;;;;5.31;66.92;96912.44;4894754;29;20723;-77
2023/12/08 01:00:12;;;;;;;14.60;4.23;;;;;;;5.20;66.71;96920.41;4892087;29;20746;-73
2023/12/08 01:02:39;;;;;;;13.13;3.80;;;;;;;5.32;66.49;96921.78;4905072;29;20334;-72
2023/12/08 01:05:07;;;;;;;5.87;2.03;;;;;;;5.33;67.41;96919.22;4912967;29;20239;-75
2023/12/08 01:07:34;;;;;;;13.53;3.77;;;;;;;5.30;67.45;96921.00;4912561;29;20548;-70
2023/12/08 01:10:02;;;;;;;9.57;2.87;;;;;;;5.07;67.17;96902.81;4913360;29;20200;-72
2023/12/08 01:12:30;;;;;;;9.70;2.87;;;;;;;5.22;66.25;96907.53;4911925;29;20210;-74
2023/12/08 01:14:57;;;;;;;11.53;3.20;;;;;;;5.29;65.66;96903.94;4913316;29;20208;-72
2023/12/08 01:17:25;;;;;;;14.70;4.00;;;;;;;5.19;66.42;96887.09;4911645;29;20302;-72
2023/12/08 01:19:52;;;;;;;12.07;3.40;;;;;;;4.94;65.93;96851.84;4913322;29;20194;-76
2023/12/08 01:22:19;;;;;;;8.27;2.53;;;;;;;5.16;66.91;96884.59;4912530;29;20645;-74
2023/12/08 01:24:46;;;;;;;11.40;3.33;;;;;;;5.07;67.59;96897.69;4912385;29;20212;-72
2023/12/08 01:27:13;;;;;;;8.57;2.73;;;;;;;5.23;67.57;96907.50;4913000;29;20617;-73
2023/12/08 01:29:40;;;;;;;12.00;3.60;;;;;;;5.01;66.99;96901.25;4910095;29;20202;-72
2023/12/08 01:32:08;;;;;;;8.10;2.67;;;;;;;5.05;66.73;96905.41;4913019;29;20255;-73
2023/12/08 01:34:35;;;;;;;11.43;3.30;;;;;;;5.09;66.59;96903.63;4912287;29;20210;-74
2023/12/08 01:37:02;;;;;;;9.33;2.83;;;;;;;5.23;66.45;96914.38;4912846;29;20698;-74
2023/12/08 01:39:29;;;;;;;10.90;3.13;;;;;;;5.28;67.17;96894.53;4911450;29;20290;-76
2023/12/08 01:41:56;;;;;;;14.17;4.07;;;;;;;5.19;67.07;96907.63;4912008;29;20262;-75
2023/12/08 01:44:23;;;;;;;9.83;2.77;;;;;;;5.27;66.53;96915.97;4911963;29;20272;-75
2023/12/08 01:46:51;;;;;;;13.00;3.80;;;;;;;5.04;67.76;96918.28;4911504;29;20294;-74
2023/12/08 01:49:18;;;;;;;12.57;3.63;;;;;;;5.06;67.07;96917.38;4912540;29;20196;-71
2023/12/08 01:51:46;;;;;;;10.87;3.20;;;;;;;5.12;67.82;96913.78;4910729;29;20284;-70
2023/12/08 01:54:15;;;;;;;13.07;3.83;;;;;;;4.97;67.98;96911.66;4912459;29;20302;-70
2023/12/08 01:56:43;;;;;;;14.67;4.17;;;;;;;5.03;68.43;96922.56;4911296;29;20221;-69
2023/12/08 01:59:11;;;;;;;16.03;4.53;;;;;;;4.87;68.26;96882.81;4911897;29;20598;-68
2023/12/08 02:01:38;;;;;;;9.00;2.97;;;;;;;4.63;68.51;96858.66;4911299;29;20254;-69
2023/12/08 02:04:05;;;;;;;14.63;4.40;;;;;;;5.04;67.65;96923.41;4910834;29;20207;-69
2023/12/08 02:06:33;;;;;;;12.40;3.53;;;;;;;5.06;67.37;96927.63;4912057;29;20745;-69
2023/12/08 02:09:00;;;;;;;15.07;4.53;;;;;;;5.08;67.48;96920.75;4910397;29;20618;-69
2023/12/08 02:11:27;;;;;;;14.47;4.13;;;;;;;5.26;67.90;96934.81;4910618;29;20205;-69
2023/12/08 02:13:55;;;;;;;14.20;4.37;;;;;;;5.11;67.30;96909.56;4910443;29;20207;-72
2023/12/08 02:16:29;;;;;;;12.60;4.03;;;;;;;4.82;68.29;96880.34;4912020;29;20283;-73
2023/12/08 02:18:57;;;;;;;6.53;2.27;;;;;;;5.12;67.02;96916.38;4911617;29;20207;-70
2023/12/08 02:21:27;;;;;;;12.33;3.67;;;;;;;5.19;68.20;96923.88;4910312;29;20222;-69
2023/12/08 02:23:54;;;;;;;16.37;4.57;;;;;;;5.23;68.05;96909.22;4911751;29;20764;-70
2023/12/08 02:26:21;;;;;;;16.53;4.77;;;;;;;5.20;67.28;96906.72;4909947;29;20211;-68
2023/12/08 02:28:48;;;;;;;17.03;5.00;;;;;;;5.38;67.24;96913.97;4911690;29;20691;-70
2023/12/08 02:31:19;;;;;;;17.90;4.93;;;;;;;5.31;67.23;96922.69;4910039;29;20255;-69
2023/12/08 02:33:51;;;;;;;15.20;4.60;;;;;;;5.12;67.65;96900.97;4911316;29;20274;-70
2023/12/08 02:36:20;;;;;;;13.23;4.17;;;;;;;5.15;68.92;96917.16;4911134;29;20269;-69
2023/12/08 02:38:49;;;;;;;16.77;5.20;;;;;;;5.20;67.91;96920.41;4909952;29;20215;-69
2023/12/08 02:41:17;;;;;;;15.57;4.97;;;;;;;5.03;68.88;96916.63;4911246;29;20214;-68
2023/12/08 02:43:44;;;;;;;18.93;5.93;;;;;;;5.07;68.43;96913.09;4909817;29;20299;-69
2023/12/08 02:46:11;;;;;;;13.70;4.63;;;;;;;5.01;68.24;96906.38;4911324;29;20215;-70
2023/12/08 02:48:38;;;;;;;13.73;4.43;;;;;;;5.04;69.19;96908.03;4910273;29;20194;-69
2023/12/08 02:51:06;;;;;;;11.77;4.30;;;;;;;4.97;69.60;96902.22;4911579;29;20195;-69
2023/12/08 02:53:33;;;;;;;8.47;3.30;;;;;;;4.95;69.63;96917.66;4910784;29;20195;-68
2023/12/08 02:56:00;;;;;;;13.73;4.57;;;;;;;4.92;68.90;96919.47;4910111;29;20202;-68
2023/12/08 02:58:27;;;;;;;17.87;4.93;;;;;;;4.88;69.53;96921.25;4911155;29;20211;-69
2023/12/08 03:00:54;;;;;;;15.40;5.20;;;;;;;5.01;69.04;96918.38;4909555;29;20634;-69
2023/12/08 03:03:21;;;;;;;14.33;4.93;;;;;;;4.56;69.60;96857.09;4911062;29;20765;-69
2023/12/08 03:05:48;;;;;;;14.33;4.97;;;;;;;5.08;68.91;96925.88;4909591;29;20211;-70
2023/12/08 03:08:16;;;;;;;15.10;5.17;;;;;;;5.07;69.21;96928.50;4911768;29;20202;-69
2023/12/08 03:10:43;;;;;;;11.33;3.87;;;;;;;4.99;69.47;96932.97;4910680;29;20199;-69
2023/12/08 03:13:10;;;;;;;15.17;4.93;;;;;;;4.97;70.17;96928.72;4910792;29;20198;-73
2023/12/08 03:15:37;;;;;;;10.10;4.03;;;;;;;4.91;70.07;96925.47;4916386;29;20197;-74
2023/12/08 03:18:04;;;;;;;17.13;5.47;;;;;;;4.92;69.66;96935.66;4916243;29;20207;-72
2023/12/08 03:20:32;;;;;;;14.00;4.70;;;;;;;4.93;70.33;96932.25;4917467;29;20207;-74
2023/12/08 03:22:59;;;;;;;13.73;4.57;;;;;;;5.02;70.72;96928.59;4915877;29;20313;-73
2023/12/08 03:25:27;;;;;;;13.23;4.53;;;;;;;5.11;70.05;96935.22;4917554;29;20206;-73
2023/12/08 03:27:53;;;;;;;10.17;3.93;;;;;;;5.10;69.62;96933.53;4916844;29;20206;-74
2023/12/08 03:30:21;;;;;;;14.67;5.10;;;;;;;5.02;70.00;96922.63;4916776;29;20186;-74
2023/12/08 03:32:48;;;;;;;7.73;3.07;;;;;;;5.19;69.74;96921.31;4917608;29;20210;-76
2023/12/08 03:35:15;;;;;;;16.47;5.43;;;;;;;5.34;68.30;96928.59;4915590;29;20607;-73
2023/12/08 03:37:42;;;;;;;19.50;5.67;;;;;;;5.14;69.41;96917.16;4917493;29;20210;-74
2023/12/08 03:40:10;;;;;;;13.60;4.40;;;;;;;5.22;68.87;96928.91;4915725;29;20295;-75
2023/12/08 03:42:37;;;;;;;16.80;5.30;;;;;;;5.32;69.13;96934.63;4916991;29;20234;-73
2023/12/08 03:45:05;;;;;;;10.40;4.00;;;;;;;5.33;68.64;96934.63;4916023;29;20613;-72
2023/12/08 03:47:32;;;;;;;15.60;5.23;;;;;;;5.27;69.46;96936.50;4917142;29;20297;-74
2023/12/08 03:50:00;;;;;;;12.67;4.73;;;;;;;5.26;69.82;96939.94;4916997;29;20282;-74
2023/12/08 03:52:29;;;;;;;15.30;4.97;;;;;;;5.06;70.78;96931.91;4915580;29;20199;-72
2023/12/08 03:54:56;;;;;;;17.03;5.97;;;;;;;5.22;70.38;96938.34;4917179;29;20222;-74
2023/12/08 03:57:24;;;;;;;13.30;5.00;;;;;;;5.03;70.69;96949.97;4915433;29;20208;-74
2023/12/08 03:59:51;;;;;;;9.70;3.97;;;;;;;5.07;70.98;96938.75;4917172;29;20198;-74
2023/12/08 04:02:18;;;;;;;11.37;4.60;;;;;;;5.19;69.19;96941.00;4915501;29;20261;-74
2023/12/08 04:04:45;;;;;;;12.80;5.10;;;;;;;5.11;69.26;96940.34;4916657;29;20199;-74
2023/12/08 04:07:13;;;;;;;12.33;4.50;;;;;;;5.17;69.58;96953.03;4916509;29;20224;-74
2023/12/08 04:09:39;;;;;;;14.20;5.13;;;;;;;5.22;69.31;96946.03;4915831;29;20208;-73
2023/12/08 04:12:06;;;;;;;13.10;5.13;;;;;;;5.18;69.15;96937.59;4917005;29;20254;-75
2023/12/08 04:14:34;;;;;;;13.90;5.57;;;;;;;4.91;70.13;96922.88;4915683;29;20206;-70
2023/12/08 04:17:01;;;;;;;13.27;4.90;;;;;;;4.90;70.29;96922.03;4907162;29;20216;-74
2023/12/08 04:19:28;;;;;;;12.57;4.40;;;;;;;4.87;70.17;96929.84;4896629;29;20207;-75
2023/12/08 04:21:56;;;;;;;11.07;3.90;;;;;;;4.75;71.25;96917.31;4897988;29;20206;-71
2023/12/08 04:24:23;;;;;;;9.73;3.70;;;;;;;4.87;69.58;96924.69;4897668;29;20265;-74
2023/12/08 04:26:50;;;;;;;13.33;5.07;;;;;;;4.85;71.06;96929.03;4894221;29;20224;-73
2023/12/08 04:29:17;;;;;;;10.53;4.07;;;;;;;4.85;70.24;96933.31;4895141;29;20657;-72
2023/12/08 04:31:44;;;;;;;14.40;5.23;;;;;;;4.81;69.81;96924.84;4893585;29;20206;-73
2023/12/08 04:34:11;;;;;;;14.57;5.23;;;;;;;5.05;70.54;96935.38;4895159;29;20213;-72
2023/12/08 04:36:38;;;;;;;16.63;5.47;;;;;;;4.93;70.64;96936.53;4911994;29;20202;-73
2023/12/08 04:39:06;;;;;;;16.33;5.57;;;;;;;4.81;70.56;96937.69;4897176;29;20291;-75
2023/12/08 04:41:33;;;;;;;10.43;4.70;;;;;;;4.69;70.85;96902.09;4913562;29;20204;-69
2023/12/08 04:44:00;;;;;;;16.20;5.80;;;;;;;4.61;70.01;96878.34;4912944;29;20226;-71
2023/12/08 04:46:27;;;;;;;11.20;4.77;;;;;;;4.25;69.14;96843.34;4913617;29;20629;-74
2023/12/08 04:48:55;;;;;;;17.50;5.67;;;;;;;4.20;70.21;96850.34;4911564;29;20218;-75
2023/12/08 04:51:22;;;;;;;13.70;5.13;;;;;;;4.81;69.97;96947.09;4914108;29;20581;-73
2023/12/08 04:53:50;;;;;;;12.23;4.77;;;;;;;4.84;69.86;96947.03;4911707;29;20202;-74
2023/12/08 04:56:17;;;;;;;15.03;5.40;;;;;;;4.83;69.78;96943.63;4913320;29;20205;-75
2023/12/08 04:58:47;;;;;;;10.07;3.77;;;;;;;4.80;69.78;96924.91;4912294;29;20267;-75
2023/12/08 05:01:14;;;;;;;11.17;4.50;;;;;;;4.79;69.86;96947.13;4913115;29;20684;-74
2023/12/08 05:03:41;;;;;;;9.47;4.13;;;;;;;4.76;69.40;96941.25;4912918;29;20321;-73
2023/12/08 05:06:09;;;;;;;14.70;4.87;;;;;;;4.78;69.98;96942.88;4911795;29;20208;-74
2023/12/08 05:08:39;;;;;;;13.77;4.93;;;;;;;4.83;69.70;96943.63;4913049;29;20199;-74
2023/12/08 05:11:10;;;;;;;11.93;4.90;;;;;;;4.91;68.95;96939.13;4911213;29;20198;-74
2023/12/08 05:13:37;;;;;;;11.77;4.50;;;;;;;4.72;69.98;96925.06;4912895;29;20238;-74
2023/12/08 05:16:11;;;;;;;15.03;5.80;;;;;;;4.77;70.03;96940.34;4894806;29;20203;-74
2023/12/08 05:18:39;;;;;;;14.33;5.37;;;;;;;4.87;69.44;96954.63;4912837;29;20210;-75
2023/12/08 05:21:07;;;;;;;17.50;4.50;;;;;;;4.88;69.84;96958.91;4908340;29;20296;-74
2023/12/08 05:23:34;;;;;;;17.33;5.97;;;;;;;4.91;69.83;96946.84;4911445;29;20270;-74
2023/12/08 05:26:02;;;;;;;11.40;4.47;;;;;;;4.94;68.99;96954.47;4912622;29;20206;-73
2023/12/08 05:28:29;;;;;;;13.33;5.23;;;;;;;4.95;69.21;96971.53;4910923;29;20202;-74
2023/12/08 05:30:56;;;;;;;11.00;4.37;;;;;;;4.95;69.41;96966.41;4912910;29;20279;-73
2023/12/08 05:33:23;;;;;;;14.53;5.10;;;;;;;5.00;68.36;96978.28;4894525;29;20206;-74
2023/12/08 05:35:51;;;;;;;19.87;6.50;;;;;;;5.06;68.32;96976.41;4912395;29;20616;-75
2023/12/08 05:38:18;;;;;;;9.70;4.03;;;;;;;5.15;68.09;96977.91;4911658;29;20673;-75
2023/12/08 05:40:45;;;;;;;12.67;4.90;;;;;;;5.13;68.09;96964.25;4911739;29;20190;-75
2023/12/08 05:43:12;;;;;;;10.70;4.43;;;;;;;5.00;68.28;96968.84;4912342;29;20233;-70
2023/12/08 05:45:39;;;;;;;15.17;5.40;;;;;;;5.00;68.02;96974.00;4910785;29;20213;-73
2023/12/08 05:48:07;;;;;;;13.87;5.17;;;;;;;5.02;68.12;96966.25;4912535;29;20208;-75
2023/12/08 05:50:34;;;;;;;20.10;6.33;;;;;;;4.97;68.61;96964.63;4910770;29;20207;-75
2023/12/08 05:53:02;;;;;;;22.67;7.30;;;;;;;4.82;68.29;96941.09;4912381;29;20199;-74
2023/12/08 05:55:29;;;;;;;11.50;4.33;;;;;;;4.94;68.72;96969.88;4910042;29;20679;-73
2023/12/08 05:57:56;;;;;;;13.73;4.97;;;;;;;5.01;68.59;96964.56;4911768;29;20575;-69
2023/12/08 06:00:23;;;;;;;8.70;4.00;;;;;;;5.03;68.71;96970.50;4911986;29;20215;-71
2023/12/08 06:02:53;;;;;;;13.57;4.37;;;;;;;5.05;68.93;96977.25;4910824;29;20234;-69
2023/12/08 06:05:20;;;;;;;14.57;5.53;;;;;;;5.07;69.04;96970.38;4912210;29;20614;-70
2023/12/08 06:07:47;;;;;;;16.03;5.90;;;;;;;5.04;69.21;96965.34;4909188;29;20202;-74
2023/12/08 06:10:15;;;;;;;14.63;5.80;;;;;;;5.07;68.68;96959.28;4912066;29;20192;-70
2023/12/08 06:12:43;;;;;;;14.47;5.57;;;;;;;5.22;67.61;96979.41;4910435;29;20381;-75
2023/12/08 06:15:11;;;;;;;15.80;5.90;;;;;;;5.20;68.04;96978.59;4911249;29;20204;-75
2023/12/08 06:17:38;;;;;;;11.00;4.47;;;;;;;5.34;67.44;96979.09;4911478;29;20262;-73
2023/12/08 06:20:08;;;;;;;13.00;4.87;;;;;;;5.19;67.64;96976.94;4910794;29;20208;-74
2023/12/08 06:22:36;;;;;;;14.93;5.17;;;;;;;5.33;68.29;96988.53;4879819;29;20220;-72
2023/12/08 06:25:04;;;;;;;16.07;5.73;;;;;;;5.29;67.55;96961.25;4910277;29;20213;-73
2023/12/08 06:27:31;;;;;;;24.43;7.40;;;;;;;5.24;67.57;96951.97;4911422;29;20211;-72
2023/12/08 06:29:58;;;;;;;19.10;6.10;;;;;;;5.37;67.96;96987.56;4910312;29;20657;-74
2023/12/08 06:32:27;;;;;;;23.00;8.10;;;;;;;5.43;68.22;96989.97;4911904;29;20200;-73
2023/12/08 06:34:55;;;;;;;13.67;5.30;;;;;;;5.18;69.60;96998.34;4911110;29;20297;-72
2023/12/08 06:37:22;;;;;;;16.33;5.37;;;;;;;4.93;71.38;96986.13;4910429;29;20630;-72
2023/12/08 06:39:49;;;;;;;12.50;4.43;;;;;;;5.11;70.94;96991.69;4894517;29;20286;-74
2023/12/08 06:42:16;;;;;;;15.13;5.37;;;;;;;5.08;68.87;96971.22;4909899;29;20218;-73
2023/12/08 06:44:43;;;;;;;16.03;5.83;;;;;;;5.41;67.77;97014.00;4911529;29;20211;-75
2023/12/08 06:47:11;;;;;;;13.53;5.20;;;;;;;5.50;68.03;97016.34;4910041;29;20187;-74
2023/12/08 06:49:38;;;;;;;15.33;5.17;;;;;;;5.13;67.47;96959.13;4910887;29;20298;-75
2023/12/08 06:52:05;;;;;;;12.90;4.90;;;;;;;5.51;67.52;97013.72;4910383;29;20207;-76
2023/12/08 06:54:32;;;;;;;15.87;6.27;;;;;;;5.40;68.20;96999.50;4910181;29;20216;-74
2023/12/08 06:57:00;;;;;;;13.53;6.10;;;;;;;5.55;67.15;97019.59;4910926;29;20221;-75
2023/12/08 06:59:27;;;;;;;12.43;4.97;;;;;;;5.62;66.74;97016.84;4909171;29;20227;-75
2023/12/08 07:01:54;;;;;;;14.97;6.03;;;;;;;5.57;68.10;97022.97;4910820;29;20228;-74
2023/12/08 07:04:21;;;;;;;14.80;5.60;;;;;;;5.65;67.90;97031.31;4909732;29;20236;-75
2023/12/08 07:06:48;;;;;;;15.33;6.13;;;;;;;5.54;68.04;97020.50;4910937;29;20771;-70
2023/12/08 07:09:15;;;;;;;14.77;4.67;;;;;;;5.45;68.14;97039.56;4910011;29;20691;-71
2023/12/08 07:11:42;;;;;;;18.67;6.30;;;;;;;5.23;68.41;96999.94;4910310;29;20215;-74
2023/12/08 07:14:14;;;;;;;13.30;5.03;;;;;;;5.58;68.78;97034.94;4911578;29;20294;-73
2023/12/08 07:16:44;;;;;;;15.80;5.73;;;;;;;5.46;68.13;97014.72;4911871;29;20203;-75
2023/12/08 07:19:13;;;;;;;15.97;6.07;;;;;;;5.77;68.27;97044.69;4912373;29;20196;-73
2023/12/08 07:21:44;;;;;;;17.30;6.47;;;;;;;5.86;68.45;97033.34;4893306;29;20200;-75
2023/12/08 07:24:11;;;;;;;17.60;6.67;;;;;;;5.74;67.34;97036.22;4909777;29;20237;-71
2023/12/08 07:26:41;;;;;;;10.37;4.37;;;;;;;5.59;67.44;97052.03;4909389;29;20325;-73
2023/12/08 07:29:09;;;;;;;17.07;5.83;;;;;;;5.59;67.46;97049.47;4910909;29;20581;-71
2023/12/08 07:31:36;;;;;;;9.57;4.03;;;;;;;5.36;67.50;97028.66;4894238;29;20334;-72
2023/12/08 07:34:06;;;;;;;12.30;5.07;;;;;;;5.33;68.75;97023.63;4909953;29;20279;-70
2023/12/08 07:36:37;;;;;;;17.10;6.17;;;;;;;5.49;69.01;97033.47;4894793;29;20203;-72
2023/12/08 07:39:04;;;;;;;17.03;5.80;;;;;;;5.49;68.64;97030.91;4907859;29;20617;-70
2023/12/08 07:41:37;;;;;;;19.23;6.70;;;;;;;5.55;69.21;97035.03;4910096;29;20751;-72
2023/12/08 07:44:04;;;;;;;14.73;5.60;;;;;;;5.50;68.12;97031.75;4909782;29;20326;-73
2023/12/08 07:46:31;;;;;;;15.47;5.83;;;;;;;5.48;67.60;97018.91;4910802;29;20574;-73
2023/12/08 07:48:59;;;;;;;11.10;4.20;;;;;;;5.64;67.38;97015.09;4908989;29;20204;-73
2023/12/08 07:51:27;;;;;;;17.87;6.23;;;;;;;5.62;68.24;97041.69;4908624;29;20206;-71
2023/12/08 07:53:54;;;;;;;15.90;5.83;;;;;;;5.61;67.80;97035.72;4899394;29;20341;-71
2023/12/08 07:56:22;;;;;;;16.90;6.03;;;;;;;5.44;68.12;96990.81;4914271;29;20215;-70
2023/12/08 07:58:49;;;;;;;15.97;6.10;;;;;;;5.71;67.24;97036.28;4914459;29;20226;-74
2023/12/08 08:01:17;;;;;;;14.83;5.23;;;;;;;5.62;68.29;97032.28;4910000;29;20624;-73
2023/12/08 08:03:44;;;;;;;15.03;5.40;;;;;;;5.52;68.18;97029.97;4914233;29;20230;-76
2023/12/08 08:06:11;;;;;;;9.43;4.50;;;;;;;5.67;68.79;97042.41;4896423;29;20206;-74
2023/12/08 08:08:38;;;;;;;15.10;5.77;;;;;;;5.63;68.33;97041.66;4913147;29;20187;-73
2023/12/08 08:11:06;;;;;;;15.03;5.23;;;;;;;5.72;66.91;97038.00;4913902;29;20195;-73
2023/12/08 08:13:33;;;;;;;19.87;6.33;;;;;;;5.86;67.64;97030.78;4912411;29;20263;-74
2023/12/08 08:16:00;;;;;;;17.67;6.73;;;;;;;6.13;66.14;97035.16;4913686;29;20993;-74
2023/12/08 08:18:29;;;;;;;24.37;8.33;;;;;;;6.04;65.82;96999.41;4911615;29;20224;-72
2023/12/08 08:20:56;;;;;;;18.13;7.57;;;;;;;6.32;65.88;97022.63;4907152;29;20315;-73
2023/12/08 08:23:23;;;;;;;17.00;7.23;;;;;;;6.43;65.59;97018.81;4893784;29;20241;-73
2023/12/08 08:25:51;;;;;;;18.60;6.93;;;;;;;6.49;64.64;97028.94;4893972;29;20687;-72
2023/12/08 08:28:20;;;;;;;13.40;5.90;;;;;;;6.56;64.55;97029.59;4894487;29;20203;-71
2023/12/08 08:30:48;;;;;;;14.43;5.47;;;;;;;6.51;63.96;97022.00;4907276;29;20210;-74
2023/12/08 08:33:17;;;;;;;16.87;6.57;;;;;;;6.55;63.77;96989.34;4909993;29;20205;-74
2023/12/08 08:35:44;;;;;;;20.87;7.93;;;;;;;6.84;63.09;97022.69;4897351;29;20189;-71
2023/12/08 08:38:12;;;;;;;19.53;8.00;;;;;;;6.67;62.50;97003.53;4895901;29;20188;-76
2023/12/08 08:40:39;;;;;;;14.87;5.37;;;;;;;6.61;62.83;97022.59;4893862;29;20276;-76
2023/12/08 08:43:06;;;;;;;16.00;6.33;;;;;;;6.66;63.25;97022.47;4894006;29;20192;-75
2023/12/08 08:45:33;;;;;;;17.67;7.10;;;;;;;6.71;62.67;97034.28;4894191;29;20234;-75
2023/12/08 08:48:00;;;;;;;21.20;7.50;;;;;;;6.57;62.99;97016.69;4892621;29;20289;-74
2023/12/08 08:50:28;;;;;;;14.30;5.50;;;;;;;6.50;62.00;96989.47;4894160;29;20220;-73
2023/12/08 08:53:06;;;;;;;18.73;6.77;;;;;;;6.57;62.11;97021.00;4891041;29;20291;-72
2023/12/08 08:55:34;;;;;;;24.77;8.37;;;;;;;6.48;62.57;97022.13;4892776;29;20260;-74
2023/12/08 08:58:05;;;;;;;17.33;8.57;;;;;;;6.54;63.48;97021.09;4891594;29;20206;-71
2023/12/08 09:00:32;;;;;;;18.57;6.90;;;;;;;6.31;63.68;97026.91;4891917;29;20226;-74
2023/12/08 09:03:00;;;;;;;14.03;5.80;;;;;;;6.53;62.53;97027.94;4893886;29;20238;-72
2023/12/08 09:05:28;;;;;;;21.47;7.37;;;;;;;6.56;61.63;97022.72;4892547;29;20622;-70
2023/12/08 09:07:56;;;;;;;16.87;6.13;;;;;;;6.54;62.07;97015.94;4894264;29;20202;-74
2023/12/08 09:10:23;;;;;;;12.47;4.83;;;;;;;6.67;62.51;97040.41;4890976;29;20830;-72
2023/12/08 09:12:52;;;;;;;19.53;8.37;;;;;;;6.67;62.29;97016.41;4892997;29;20343;-72
2023/12/08 09:15:19;;;;;;;15.93;6.17;;;;;;;6.95;61.15;97017.22;4894070;29;20205;-71
2023/12/08 09:17:46;;;;;;;17.07;5.90;;;;;;;6.53;61.87;97009.94;4916559;29;20200;-73
2023/12/08 09:20:16;;;;;;;13.67;5.27;;;;;;;6.77;60.71;97000.63;4922199;29;20297;-70
2023/12/08 09:22:44;;;;;;;23.10;7.93;;;;;;;6.94;60.99;96988.09;4914736;29;20244;-70
2023/12/08 09:25:11;;;;;;;16.93;6.07;;;;;;;7.00;60.89;96993.03;4895382;29;20621;-72
2023/12/08 09:27:39;;;;;;;19.20;6.73;;;;;;;7.10;60.59;96990.97;4910063;29;20208;-71
2023/12/08 09:30:07;;;;;;;18.90;6.53;;;;;;;7.08;60.46;96974.75;4894855;29;20212;-69
2023/12/08 09:32:34;;;;;;;17.13;5.70;;;;;;;7.06;60.76;96990.25;4909567;29;20227;-70
2023/12/08 09:35:02;;;;;;;17.53;5.80;;;;;;;6.87;59.90;96978.88;4911748;29;20602;-71
2023/12/08 09:37:29;;;;;;;10.03;4.37;;;;;;;6.91;61.33;96984.75;4913039;29;20210;-71
2023/12/08 09:40:08;;;;;;;15.50;5.50;;;;;;;6.86;61.19;96986.63;4911646;29;20225;-71
2023/12/08 09:42:41;;;;;;;16.17;5.57;;;;;;;6.58;62.60;96982.34;4912419;29;20253;-71
2023/12/08 09:45:10;;;;;;;16.53;5.97;;;;;;;6.38;62.13;96974.41;4910904;29;20236;-75
2023/12/08 09:47:41;;;;;;;17.00;6.00;;;;;;;6.19;62.41;96980.13;4911010;29;20204;-69
2023/12/08 09:50:12;;;;;;;10.50;4.00;;;;;;;6.07;62.67;96988.22;4911009;29;20556;-68
2023/12/08 09:52:41;;;;;;;16.20;5.90;;;;;;;6.36;63.01;96970.19;4894036;29;20588;-70
2023/12/08 09:55:10;;;;;;;8.60;4.13;;;;;;;6.51;62.29;96960.28;4910815;29;20200;-74
2023/12/08 09:57:41;;;;;;;14.73;5.47;;;;;;;6.44;61.99;96925.38;4910345;29;20562;-74
2023/12/08 10:00:12;;;;;;;14.20;6.00;;;;;;;6.84;62.04;96973.81;4912910;29;20201;-73
2023/12/08 10:02:40;;;;;;;14.37;5.37;;;;;;;6.70;62.87;96964.88;4905683;29;20236;-72
2023/12/08 10:05:11;;;;;;;17.20;7.07;;;;;;;6.83;62.17;96964.41;4919921;29;20354;-73
2023/12/08 10:07:43;;;;;;;11.67;6.40;;;;;;;6.86;62.08;96956.56;4911630;29;20282;-71
2023/12/08 10:10:11;;;;;;;17.83;6.80;;;;;;;6.91;61.17;96959.00;4910051;29;20213;-74
2023/12/08 10:12:40;;;;;;;16.60;6.47;;;;;;;6.81;61.78;96942.19;4911429;29;20256;-73
2023/12/08 10:15:10;;;;;;;15.00;6.23;;;;;;;6.88;62.45;96948.81;4909695;29;20268;-75
2023/12/08 10:17:51;;;;;;;17.97;7.57;;;;;;;6.54;61.47;96890.72;4911374;29;20668;-73
2023/12/08 10:20:21;;;;;;;17.30;6.43;;;;;;;7.14;61.98;96956.50;4910288;29;20756;-75
2023/12/08 10:22:50;;;;;;;23.47;9.23;;;;;;;7.20;60.78;96958.88;4910639;29;20202;-73
2023/12/08 10:25:21;;;;;;;12.10;4.77;;;;;;;7.15;61.37;96950.50;4910163;29;20274;-75
2023/12/08 10:27:50;;;;;;;14.13;5.47;;;;;;;7.09;61.12;96950.69;4907991;29;20278;-75
2023/12/08 10:30:21;;;;;;;15.97;6.33;;;;;;;7.07;61.12;96960.19;4911057;29;20708;-73
2023/12/08 10:32:48;;;;;;;19.97;7.37;;;;;;;7.14;61.19;96959.94;4909489;29;20578;-69
2023/12/08 10:35:16;;;;;;;23.80;8.40;;;;;;;7.10;62.57;96953.22;4911095;29;20277;-69
2023/12/08 10:37:43;;;;;;;12.83;5.53;;;;;;;7.03;60.40;96948.28;4893120;29;20201;-73
2023/12/08 10:40:17;;;;;;;20.00;7.13;;;;;;;7.01;60.60;96955.22;4910514;29;20383;-72
2023/12/08 10:42:45;;;;;;;14.17;5.53;;;;;;;6.89;61.15;96963.34;4911741;29;20316;-70
2023/12/08 10:45:13;;;;;;;17.20;7.53;;;;;;;6.81;61.64;96958.47;4923229;29;20248;-72
2023/12/08 10:47:43;;;;;;;15.63;5.40;;;;;;;6.58;60.34;96951.50;4917802;29;20216;-74
2023/12/08 10:50:12;;;;;;;13.13;5.70;;;;;;;6.57;61.52;96924.06;4892133;29;20649;-73
2023/12/08 10:52:40;;;;;;;16.60;6.63;;;;;;;6.62;61.89;96941.94;4911168;29;20208;-71
2023/12/08 10:55:09;;;;;;;13.83;5.43;;;;;;;6.70;61.44;96934.00;4910147;29;20271;-75
2023/12/08 10:57:37;;;;;;;17.57;6.80;;;;;;;6.45;63.17;96950.19;4892672;29;20316;-73
2023/12/08 11:00:12;;;;;;;10.73;4.33;;;;;;;5.85;65.17;96920.34;4910547;29;20299;-74
2023/12/08 11:03:05;;;;;;;20.53;6.63;;;;;;;6.14;65.03;96930.59;4909247;29;20336;-76
2023/12/08 11:05:37;;;;;;;14.90;5.57;;;;;;;6.24;64.48;96935.44;4894178;29;20630;-75
2023/12/08 11:08:12;;;;;;;8.97;4.20;;;;;;;6.08;65.27;96936.75;4909835;29;20292;-71
2023/12/08 11:10:44;;;;;;;13.00;5.40;;;;;;;6.23;66.86;96938.88;4908596;29;20203;-75
2023/12/08 11:13:25;;;;;;;14.70;6.37;;;;;;;6.32;68.84;96938.59;4893637;29;20229;-72
2023/12/08 11:16:17;;;;;;;14.07;6.00;;;;;;;6.52;67.51;96931.09;4909270;29;20216;-71
2023/12/08 11:18:46;;;;;;;13.70;6.10;;;;;;;6.52;68.39;96931.09;4911056;29;20203;-70
2023/12/08 11:21:14;;;;;;;12.77;5.63;;;;;;;6.62;69.15;96925.66;4909999;29;20291;-74
2023/12/08 11:23:42;;;;;;;14.80;6.13;;;;;;;6.93;68.59;96931.47;4910048;29;20200;-75
2023/12/08 11:26:24;;;;;;;11.07;4.67;;;;;;;6.65;67.23;96926.41;4915381;29;20228;-72
2023/12/08 11:29:22;;;;;;;15.13;5.83;;;;;;;6.40;66.97;96936.63;4921525;29;21177;-73
2023/12/08 11:32:15;;;;;;;12.67;5.53;;;;;;;6.30;65.90;96935.25;4911488;29;20738;-73
2023/12/08 11:35:03;;;;;;;9.73;4.20;;;;;;;6.19;67.45;96921.84;4912337;29;20231;-74
2023/12/08 11:37:34;;;;;;;18.27;8.40;;;;;;;6.47;68.13;96919.28;4912753;29;20197;-73
2023/12/08 11:40:11;;;;;;;21.20;8.67;;;;;;;6.50;67.83;96886.59;4914629;29;20625;-71